Time;durP1;ratioP1;P1;durP2;ratioP2;P2;SDS_P1;SDS_P2;PMS_P1;PMS_P2;Temp;Humidity;BMP_temperature;BMP_pressure;BME280_temperature;BME280_humidity;BME280_pressure;Samples;Min_cycle;Max_cycle;Signal;HPM_P1;HPM_P2
2022/07/24 00:00:48;;;;;;;11.93;9.02;;;22.80;94.40;;;;;;4989080;28;20105;-76
2022/07/24 00:03:14;;;;;;;11.85;8.70;;;22.70;94.50;;;;;;4985461;28;20023;-77
2022/07/24 00:05:39;;;;;;;12.10;8.52;;;22.70;94.50;;;;;;4990424;28;20100;-77
2022/07/24 00:08:05;;;;;;;12.93;9.60;;;22.60;94.60;;;;;;4986128;28;20097;-77
2022/07/24 00:10:37;;;;;;;9.95;8.95;;;22.60;94.60;;;;;;4991010;28;20038;-79
2022/07/24 00:13:03;;;;;;;11.48;8.80;;;22.60;94.70;;;;;;4988934;28;20511;-76
2022/07/24 00:15:30;;;;;;;11.52;8.70;;;22.60;94.70;;;;;;5022285;28;20040;-76
2022/07/24 00:17:56;;;;;;;10.55;9.07;;;22.60;94.80;;;;;;4993090;28;20634;-77
2022/07/24 00:20:22;;;;;;;9.93;8.93;;;22.50;94.90;;;;;;4994048;28;21038;-77
2022/07/24 00:22:51;;;;;;;13.13;8.77;;;22.50;95.00;;;;;;4992435;28;20018;-77
2022/07/24 00:25:20;;;;;;;11.27;8.77;;;22.50;95.20;;;;;;4998355;28;20048;-76
2022/07/24 00:27:46;;;;;;;10.35;9.23;;;22.50;95.50;;;;;;4994504;28;20038;-76
2022/07/24 00:30:14;;;;;;;11.93;9.00;;;22.50;95.40;;;;;;4988523;28;20506;-77
2022/07/24 00:32:43;;;;;;;10.75;9.23;;;22.40;95.40;;;;;;4997243;28;20057;-77
2022/07/24 00:35:15;;;;;;;10.45;9.35;;;22.40;95.50;;;;;;4991530;28;20066;-77
2022/07/24 00:37:46;;;;;;;11.52;8.95;;;22.40;95.50;;;;;;4991116;28;20030;-77
2022/07/24 00:40:12;;;;;;;9.65;8.55;;;22.30;95.60;;;;;;4991509;28;20507;-77
2022/07/24 00:42:41;;;;;;;11.27;9.02;;;22.30;95.60;;;;;;4985831;28;20030;-77
2022/07/24 00:45:08;;;;;;;12.20;9.23;;;22.30;95.60;;;;;;5006197;28;20041;-77
2022/07/24 00:47:37;;;;;;;10.85;9.32;;;22.30;95.60;;;;;;4984220;28;20038;-77
2022/07/24 00:50:04;;;;;;;11.75;9.05;;;22.30;95.70;;;;;;4991416;28;20090;-77
2022/07/24 00:52:33;;;;;;;10.63;8.65;;;22.20;95.80;;;;;;4992636;28;20026;-77
2022/07/24 00:54:58;;;;;;;10.07;8.70;;;22.20;95.80;;;;;;4991298;28;20125;-77
2022/07/24 00:57:24;;;;;;;11.23;8.85;;;22.20;96.10;;;;;;4991424;28;20093;-76
2022/07/24 00:59:53;;;;;;;10.50;8.63;;;22.10;96.20;;;;;;4993616;28;20019;-77
2022/07/24 01:02:22;;;;;;;10.18;8.65;;;22.10;96.30;;;;;;5006906;28;20030;-77
2022/07/24 01:04:48;;;;;;;12.45;9.23;;;22.10;96.40;;;;;;4990001;28;20038;-77
2022/07/24 01:07:23;;;;;;;11.88;10.18;;;22.10;96.50;;;;;;4991495;28;20097;-76
2022/07/24 01:09:52;;;;;;;11.98;9.15;;;22.00;96.60;;;;;;5011585;28;20057;-77
2022/07/24 01:12:21;;;;;;;11.90;10.23;;;22.00;96.80;;;;;;4984430;28;20022;-76
2022/07/24 01:14:47;;;;;;;10.35;8.90;;;21.90;96.80;;;;;;4991247;28;20026;-77
2022/07/24 01:17:12;;;;;;;10.80;9.00;;;21.90;96.80;;;;;;4992088;28;20109;-75
2022/07/24 01:19:38;;;;;;;10.40;8.50;;;21.90;96.90;;;;;;4992488;28;20061;-77
2022/07/24 01:22:04;;;;;;;11.45;9.50;;;21.80;97.10;;;;;;4993178;28;20480;-77
2022/07/24 01:24:30;;;;;;;10.98;8.50;;;21.80;97.20;;;;;;4988571;28;20053;-77
2022/07/24 01:26:55;;;;;;;13.45;9.35;;;21.80;97.30;;;;;;4994075;28;20069;-76
2022/07/24 01:29:21;;;;;;;11.70;9.27;;;21.80;97.40;;;;;;4998239;28;20431;-76
2022/07/24 01:31:47;;;;;;;11.20;9.10;;;21.80;97.50;;;;;;4989489;28;20030;-77
2022/07/24 01:34:13;;;;;;;11.38;9.55;;;21.70;97.60;;;;;;4993707;28;20118;-76
2022/07/24 01:36:39;;;;;;;11.63;9.85;;;21.70;97.70;;;;;;4992286;28;20030;-74
2022/07/24 01:39:05;;;;;;;12.10;8.80;;;21.70;97.70;;;;;;4992223;28;20033;-76
2022/07/24 01:41:30;;;;;;;12.32;8.90;;;21.70;97.80;;;;;;4992729;28;20030;-77
2022/07/24 01:43:59;;;;;;;9.55;8.63;;;21.60;97.90;;;;;;4992902;28;20065;-77
2022/07/24 01:46:25;;;;;;;12.30;9.10;;;21.60;98.00;;;;;;4991647;28;20027;-77
2022/07/24 01:48:51;;;;;;;10.52;9.23;;;21.50;98.10;;;;;;4990278;28;20038;-77
2022/07/24 01:51:17;;;;;;;12.43;9.27;;;21.50;98.20;;;;;;4991408;28;20026;-76
2022/07/24 01:53:45;;;;;;;11.02;9.85;;;21.50;98.30;;;;;;4990306;28;20018;-77
2022/07/24 01:56:17;;;;;;;11.73;9.30;;;21.50;98.40;;;;;;4988592;28;20026;-76
2022/07/24 01:58:43;;;;;;;9.98;8.85;;;21.50;98.50;;;;;;4995997;28;20113;-76
2022/07/24 02:01:08;;;;;;;12.75;9.25;;;21.40;98.60;;;;;;4991628;28;20428;-76
2022/07/24 02:03:38;;;;;;;11.32;8.98;;;21.40;98.70;;;;;;4990379;28;20546;-76
2022/07/24 02:06:04;;;;;;;10.55;9.45;;;21.40;98.80;;;;;;4988683;28;20105;-76
2022/07/24 02:08:30;;;;;;;11.98;8.80;;;21.40;98.80;;;;;;5005167;28;20157;-76
2022/07/24 02:10:56;;;;;;;10.70;8.85;;;21.30;99.00;;;;;;4988917;28;20028;-76
2022/07/24 02:13:28;;;;;;;11.93;9.23;;;21.30;99.20;;;;;;4989043;28;20076;-76
2022/07/24 02:16:00;;;;;;;15.00;10.45;;;21.30;99.30;;;;;;4987707;28;20480;-74
2022/07/24 02:18:31;;;;;;;11.10;9.05;;;21.30;99.30;;;;;;4987515;28;20030;-74
2022/07/24 02:20:57;;;;;;;11.35;8.88;;;21.20;99.50;;;;;;4995169;28;20019;-73
2022/07/24 02:23:23;;;;;;;10.82;8.88;;;21.20;99.70;;;;;;4992117;28;20497;-77
2022/07/24 02:25:49;;;;;;;12.18;9.05;;;21.20;99.70;;;;;;4988200;28;20479;-77
2022/07/24 02:28:16;;;;;;;11.52;8.70;;;21.10;99.70;;;;;;4991747;28;20027;-77
2022/07/24 02:30:42;;;;;;;13.38;9.63;;;21.10;99.80;;;;;;4988023;28;21572;-77
2022/07/24 02:33:08;;;;;;;14.57;8.35;;;21.10;99.90;;;;;;4992921;28;20026;-80
2022/07/24 02:35:34;;;;;;;10.07;8.45;;;21.10;99.90;;;;;;5000855;28;20026;-79
2022/07/24 02:38:06;;;;;;;9.43;8.38;;;21.10;99.90;;;;;;4998970;28;20033;-78
2022/07/24 02:40:38;;;;;;;11.35;9.23;;;21.10;99.90;;;;;;4996367;28;20029;-78
2022/07/24 02:43:13;;;;;;;14.02;9.73;;;21.10;99.90;;;;;;4999706;28;20018;-79
2022/07/24 02:45:38;;;;;;;12.25;9.50;;;21.10;99.90;;;;;;4990973;28;20346;-77
2022/07/24 02:48:10;;;;;;;11.45;9.27;;;21.10;99.90;;;;;;4997928;28;20061;-78
2022/07/24 02:50:38;;;;;;;12.98;9.07;;;21.00;99.90;;;;;;5016715;28;20038;-78
2022/07/24 02:53:05;;;;;;;11.55;8.95;;;21.00;99.90;;;;;;5005001;28;20037;-77
2022/07/24 02:55:33;;;;;;;10.60;9.55;;;21.00;99.90;;;;;;5004104;28;20026;-79
2022/07/24 02:57:59;;;;;;;10.30;8.50;;;21.00;99.90;;;;;;4999666;28;20064;-77
2022/07/24 03:00:24;;;;;;;10.68;8.43;;;20.90;99.90;;;;;;5003422;28;20030;-78
2022/07/24 03:02:53;;;;;;;11.63;8.85;;;20.90;99.90;;;;;;5005258;28;20051;-81
2022/07/24 03:05:19;;;;;;;11.27;9.50;;;20.80;99.90;;;;;;5002392;28;20098;-77
2022/07/24 03:07:44;;;;;;;11.52;8.48;;;20.80;99.90;;;;;;5003976;28;20026;-79
2022/07/24 03:10:12;;;;;;;11.20;8.90;;;20.80;99.90;;;;;;5007162;28;20061;-80
2022/07/24 03:12:38;;;;;;;12.15;9.95;;;20.80;99.90;;;;;;5000348;28;20511;-78
2022/07/24 03:15:07;;;;;;;13.50;8.95;;;20.80;99.90;;;;;;5004307;28;20026;-78
2022/07/24 03:17:35;;;;;;;10.70;8.35;;;20.70;99.90;;;;;;5006833;28;20489;-79
2022/07/24 03:20:05;;;;;;;11.63;8.70;;;20.70;99.90;;;;;;5004039;28;20037;-79
2022/07/24 03:22:33;;;;;;;10.25;8.18;;;20.70;99.90;;;;;;5002460;28;20033;-77
2022/07/24 03:25:00;;;;;;;12.85;8.82;;;20.70;99.90;;;;;;5003840;28;20027;-79
2022/07/24 03:27:32;;;;;;;12.35;8.98;;;20.70;99.90;;;;;;5002972;28;20069;-78
2022/07/24 03:29:58;;;;;;;12.45;10.38;;;20.70;99.90;;;;;;5002304;28;20114;-78
2022/07/24 03:32:23;;;;;;;11.90;9.30;;;20.60;99.90;;;;;;5003495;28;20041;-78
2022/07/24 03:34:49;;;;;;;12.85;10.13;;;20.60;99.90;;;;;;4998624;28;20034;-79
2022/07/24 03:37:14;;;;;;;12.13;9.52;;;20.60;99.90;;;;;;5002616;28;20033;-77
2022/07/24 03:39:40;;;;;;;12.82;9.27;;;20.60;99.90;;;;;;5000019;28;20092;-78
2022/07/24 03:42:06;;;;;;;11.68;8.80;;;20.50;99.90;;;;;;5001511;28;20403;-78
2022/07/24 03:44:31;;;;;;;10.15;8.38;;;20.50;99.90;;;;;;5000345;28;20037;-79
2022/07/24 03:47:00;;;;;;;13.07;10.05;;;20.60;99.90;;;;;;5002268;28;20109;-80
2022/07/24 03:49:26;;;;;;;11.75;9.10;;;20.50;99.90;;;;;;5003603;28;20118;-80
2022/07/24 03:51:51;;;;;;;13.25;10.25;;;20.50;99.90;;;;;;5003227;28;20066;-80
2022/07/24 03:54:17;;;;;;;11.50;9.18;;;20.50;99.90;;;;;;5001597;28;20053;-79
2022/07/24 03:56:43;;;;;;;10.00;8.80;;;20.40;99.90;;;;;;5002210;28;20026;-79
2022/07/24 03:59:20;;;;;;;12.90;9.85;;;20.40;99.90;;;;;;4999408;28;20058;-79
2022/07/24 04:01:46;;;;;;;12.07;8.95;;;20.40;99.90;;;;;;4995150;28;20130;-79
2022/07/24 04:04:12;;;;;;;10.70;8.07;;;20.40;99.90;;;;;;4996431;28;20050;-79
2022/07/24 04:06:37;;;;;;;13.93;9.05;;;20.40;99.90;;;;;;4996327;28;20030;-79
2022/07/24 04:09:06;;;;;;;12.95;8.60;;;20.40;99.90;;;;;;4997165;28;20022;-79
2022/07/24 04:11:32;;;;;;;12.20;8.35;;;20.40;99.90;;;;;;4990624;28;20045;-79
2022/07/24 04:13:58;;;;;;;13.77;9.07;;;20.40;99.90;;;;;;4994172;28;20027;-80
2022/07/24 04:16:24;;;;;;;14.57;9.57;;;20.40;99.90;;;;;;4996201;28;20018;-80
2022/07/24 04:18:50;;;;;;;12.10;9.02;;;20.40;99.90;;;;;;5003741;28;20090;-78
2022/07/24 04:21:16;;;;;;;10.77;8.65;;;20.40;99.90;;;;;;4997146;28;20026;-78
2022/07/24 04:23:42;;;;;;;11.45;8.23;;;20.40;99.90;;;;;;5002965;28;20030;-77
2022/07/24 04:26:07;;;;;;;11.93;8.27;;;20.40;99.90;;;;;;4997724;28;20451;-80
2022/07/24 04:28:33;;;;;;;10.85;8.38;;;20.40;99.90;;;;;;4997324;28;20520;-80
2022/07/24 04:30:59;;;;;;;11.45;9.13;;;20.40;99.90;;;;;;4996534;28;20026;-80
2022/07/24 04:33:24;;;;;;;12.18;8.55;;;20.40;99.90;;;;;;4996090;28;20037;-78
2022/07/24 04:35:50;;;;;;;13.02;8.25;;;20.40;99.90;;;;;;4996191;28;20093;-79
2022/07/24 04:38:22;;;;;;;10.68;8.45;;;20.50;99.90;;;;;;5007667;28;20033;-77
2022/07/24 04:40:47;;;;;;;10.30;8.60;;;20.50;99.90;;;;;;4983196;28;20030;-77
2022/07/24 04:43:16;;;;;;;12.63;8.75;;;20.50;99.90;;;;;;4994533;28;20034;-78
2022/07/24 04:45:42;;;;;;;13.63;8.68;;;20.60;99.90;;;;;;4997068;28;20058;-78
2022/07/24 04:48:10;;;;;;;12.88;8.82;;;20.60;99.90;;;;;;4993981;28;20018;-79
2022/07/24 04:50:45;;;;;;;11.77;8.73;;;20.60;99.90;;;;;;4996514;28;20027;-79
2022/07/24 04:53:21;;;;;;;11.68;8.00;;;20.70;99.90;;;;;;5003297;28;20022;-78
2022/07/24 04:55:46;;;;;;;8.93;7.97;;;20.70;99.90;;;;;;4997396;28;20025;-78
2022/07/24 04:58:12;;;;;;;10.77;8.57;;;20.80;99.90;;;;;;5007654;28;20034;-79
2022/07/24 05:00:37;;;;;;;15.00;9.90;;;20.80;99.90;;;;;;5006091;28;20034;-78
2022/07/24 05:03:03;;;;;;;12.82;11.02;;;20.80;99.90;;;;;;5003702;28;20110;-78
2022/07/24 05:05:29;;;;;;;16.85;11.50;;;20.90;99.90;;;;;;5009044;28;20022;-79
2022/07/24 05:07:57;;;;;;;15.35;10.65;;;21.00;99.90;;;;;;5007496;28;20054;-79
2022/07/24 05:10:23;;;;;;;14.15;9.90;;;21.20;99.90;;;;;;5007345;28;20098;-78
2022/07/24 05:12:49;;;;;;;11.40;9.27;;;21.30;99.90;;;;;;5007950;28;20034;-79
2022/07/24 05:15:23;;;;;;;11.23;8.65;;;21.40;99.90;;;;;;5006788;28;20415;-78
2022/07/24 05:17:52;;;;;;;9.07;8.10;;;21.60;99.90;;;;;;5005980;28;20098;-79
2022/07/24 05:20:19;;;;;;;13.52;9.27;;;21.70;99.90;;;;;;5008830;28;20094;-78
2022/07/24 05:22:48;;;;;;;10.65;8.30;;;21.90;99.90;;;;;;5007000;28;20028;-78
2022/07/24 05:25:23;;;;;;;11.98;8.65;;;22.00;99.90;;;;;;5006307;28;20023;-79
2022/07/24 05:27:51;;;;;;;10.27;8.45;;;22.00;99.90;;;;;;5007394;28;20014;-79
2022/07/24 05:30:17;;;;;;;13.48;8.52;;;22.10;99.90;;;;;;5008095;28;20045;-77
2022/07/24 05:32:45;;;;;;;12.38;8.25;;;22.20;99.90;;;;;;4999716;28;20034;-78
2022/07/24 05:35:11;;;;;;;10.00;8.30;;;22.30;99.60;;;;;;5002324;28;20027;-78
2022/07/24 05:37:43;;;;;;;10.32;7.90;;;22.40;99.40;;;;;;5009251;28;20034;-76
2022/07/24 05:40:09;;;;;;;12.00;7.75;;;22.50;99.10;;;;;;4998513;28;20618;-79
2022/07/24 05:42:34;;;;;;;8.48;7.47;;;22.60;98.80;;;;;;5001261;28;20027;-79
2022/07/24 05:45:00;;;;;;;13.35;10.13;;;22.70;98.70;;;;;;4997584;28;20076;-79
2022/07/24 05:47:34;;;;;;;11.65;9.00;;;22.80;98.80;;;;;;5003454;28;20062;-78
2022/07/24 05:50:15;;;;;;;12.00;9.63;;;22.80;98.90;;;;;;5000945;28;20093;-77
2022/07/24 05:52:41;;;;;;;11.82;9.90;;;22.70;99.00;;;;;;5001886;28;20018;-79
2022/07/24 05:55:08;;;;;;;11.00;8.77;;;22.60;99.00;;;;;;5001119;28;20022;-78
2022/07/24 05:57:34;;;;;;;11.38;9.27;;;22.60;99.10;;;;;;5008674;28;20030;-78
2022/07/24 05:59:59;;;;;;;13.43;10.20;;;22.50;99.20;;;;;;4999921;28;20672;-79
2022/07/24 06:02:25;;;;;;;12.18;9.85;;;22.40;99.30;;;;;;5001731;28;20010;-79
2022/07/24 06:04:54;;;;;;;14.60;11.70;;;22.40;99.40;;;;;;4998986;28;20061;-78
2022/07/24 06:07:22;;;;;;;12.23;10.30;;;22.50;99.50;;;;;;4998340;28;20040;-79
2022/07/24 06:09:52;;;;;;;15.38;10.77;;;22.60;99.50;;;;;;4997377;28;20030;-78
2022/07/24 06:12:17;;;;;;;12.20;10.60;;;22.90;99.40;;;;;;4997546;28;20050;-79
2022/07/24 06:14:43;;;;;;;13.23;9.88;;;23.00;99.10;;;;;;5000210;28;20035;-79
2022/07/24 06:17:09;;;;;;;10.77;9.60;;;23.20;99.00;;;;;;4995136;28;20026;-78
2022/07/24 06:19:38;;;;;;;16.02;10.57;;;23.40;98.40;;;;;;5013589;28;20038;-79
2022/07/24 06:22:03;;;;;;;16.20;10.32;;;23.60;98.10;;;;;;5000203;28;20105;-79
2022/07/24 06:24:29;;;;;;;16.17;10.43;;;23.70;97.70;;;;;;4999681;28;20054;-78
2022/07/24 06:26:55;;;;;;;11.10;8.88;;;23.90;97.50;;;;;;4995048;28;20022;-76
2022/07/24 06:29:20;;;;;;;11.85;10.38;;;24.00;97.20;;;;;;4997416;28;20433;-78
2022/07/24 06:31:49;;;;;;;16.33;9.35;;;24.10;97.00;;;;;;4996309;28;20050;-78
2022/07/24 06:34:15;;;;;;;12.27;9.85;;;24.30;96.70;;;;;;5003236;28;20045;-78
2022/07/24 06:36:40;;;;;;;11.60;9.52;;;24.40;96.50;;;;;;5002737;28;20317;-78
2022/07/24 06:39:15;;;;;;;12.02;9.48;;;24.40;96.20;;;;;;4997175;28;20110;-79
2022/07/24 06:41:43;;;;;;;10.55;9.45;;;24.40;95.90;;;;;;5004990;28;20029;-79
2022/07/24 06:44:09;;;;;;;11.18;8.68;;;24.40;95.90;;;;;;5002571;28;20041;-78
2022/07/24 06:46:38;;;;;;;13.93;8.27;;;24.30;95.70;;;;;;4997658;28;20046;-80
2022/07/24 06:49:03;;;;;;;13.60;8.77;;;24.40;95.60;;;;;;4999852;28;20082;-78
2022/07/24 06:51:29;;;;;;;10.43;7.63;;;24.50;95.50;;;;;;4993101;28;20054;-79
2022/07/24 06:53:54;;;;;;;11.43;7.72;;;24.60;95.10;;;;;;5006674;28;20053;-80
2022/07/24 06:56:20;;;;;;;10.93;7.35;;;24.60;94.40;;;;;;5002087;28;20065;-77
2022/07/24 06:58:46;;;;;;;9.30;8.27;;;24.60;93.80;;;;;;4987579;28;20026;-74
2022/07/24 07:01:15;;;;;;;8.63;6.50;;;24.70;93.70;;;;;;4983135;28;20034;-75
2022/07/24 07:03:40;;;;;;;9.77;7.25;;;24.70;93.80;;;;;;4987033;28;20029;-74
2022/07/24 07:06:15;;;;;;;7.80;7.00;;;24.80;93.70;;;;;;4989241;28;20014;-75
2022/07/24 07:08:40;;;;;;;9.32;7.60;;;24.70;93.40;;;;;;4989252;28;20388;-74
2022/07/24 07:11:06;;;;;;;9.82;7.18;;;24.80;93.30;;;;;;4999157;28;20030;-74
2022/07/24 07:13:32;;;;;;;9.73;7.40;;;24.80;93.20;;;;;;4987854;28;20128;-75
2022/07/24 07:15:57;;;;;;;10.73;8.13;;;24.80;92.90;;;;;;4983373;28;20026;-74
2022/07/24 07:18:23;;;;;;;14.05;7.85;;;24.70;92.70;;;;;;4988028;28;20042;-72
2022/07/24 07:20:53;;;;;;;9.98;7.38;;;24.70;92.80;;;;;;4982423;28;20383;-75
2022/07/24 07:23:23;;;;;;;12.35;7.72;;;24.60;92.50;;;;;;4990931;28;20022;-73
2022/07/24 07:25:49;;;;;;;8.50;7.50;;;24.60;92.60;;;;;;4991859;28;20027;-78
2022/07/24 07:28:15;;;;;;;9.65;7.35;;;24.60;92.40;;;;;;4997995;28;20495;-78
2022/07/24 07:30:44;;;;;;;9.38;7.55;;;24.50;92.10;;;;;;4995025;28;20381;-77
2022/07/24 07:33:13;;;;;;;9.57;6.68;;;24.60;92.40;;;;;;4990613;28;20060;-76
2022/07/24 07:35:39;;;;;;;10.32;6.85;;;24.70;92.60;;;;;;5003747;28;20134;-77
2022/07/24 07:38:07;;;;;;;10.43;6.78;;;24.70;92.50;;;;;;4987702;28;20137;-76
2022/07/24 07:40:36;;;;;;;6.97;6.28;;;24.80;92.30;;;;;;4990855;28;20391;-77
2022/07/24 07:43:05;;;;;;;9.65;6.72;;;24.90;92.00;;;;;;4988772;28;20022;-78
2022/07/24 07:45:30;;;;;;;10.13;7.32;;;24.90;91.70;;;;;;4996638;28;20038;-76
2022/07/24 07:47:59;;;;;;;10.02;7.40;;;25.00;91.70;;;;;;4998705;28;20068;-78
2022/07/24 07:50:25;;;;;;;9.52;7.60;;;25.20;91.60;;;;;;4992515;28;20026;-76
2022/07/24 07:52:54;;;;;;;8.68;7.03;;;25.20;91.30;;;;;;4999333;28;20137;-78
2022/07/24 07:55:20;;;;;;;7.88;6.72;;;25.30;91.10;;;;;;5000029;28;20037;-79
2022/07/24 07:57:45;;;;;;;8.65;6.95;;;25.30;90.80;;;;;;4995661;28;20022;-78
2022/07/24 08:00:12;;;;;;;8.63;6.53;;;25.40;90.60;;;;;;4991784;28;20022;-78
2022/07/24 08:02:44;;;;;;;7.03;5.72;;;25.40;90.20;;;;;;4992690;28;20061;-77
2022/07/24 08:05:16;;;;;;;8.23;6.45;;;25.50;90.20;;;;;;4997067;28;20018;-79
2022/07/24 08:07:42;;;;;;;10.80;6.80;;;25.60;90.00;;;;;;4994852;28;20030;-77
2022/07/24 08:10:07;;;;;;;9.55;6.40;;;25.70;90.00;;;;;;4989319;28;20026;-77
2022/07/24 08:12:33;;;;;;;10.45;6.53;;;25.70;89.10;;;;;;4990713;28;20027;-78
2022/07/24 08:14:59;;;;;;;7.18;6.47;;;25.80;89.20;;;;;;4992431;28;20025;-78
2022/07/24 08:17:25;;;;;;;8.18;6.45;;;25.80;88.90;;;;;;4998678;28;20430;-77
2022/07/24 08:19:50;;;;;;;9.18;6.10;;;25.90;88.30;;;;;;4994684;28;20026;-78
2022/07/24 08:22:16;;;;;;;9.07;6.80;;;25.90;87.70;;;;;;4999216;28;20015;-79
2022/07/24 08:24:41;;;;;;;16.63;8.13;;;26.00;87.50;;;;;;5003212;28;20022;-78
2022/07/24 08:27:07;;;;;;;7.63;6.20;;;26.00;87.20;;;;;;5004748;28;20026;-78
2022/07/24 08:29:33;;;;;;;8.50;6.45;;;26.10;86.70;;;;;;5006090;28;20030;-80
2022/07/24 08:32:02;;;;;;;9.82;6.88;;;26.20;86.00;;;;;;5008929;28;20065;-80
2022/07/24 08:34:27;;;;;;;9.40;6.20;;;26.20;85.00;;;;;;5013722;28;20027;-81
2022/07/24 08:36:53;;;;;;;9.07;6.07;;;26.30;84.60;;;;;;5006880;28;20069;-79
2022/07/24 08:39:22;;;;;;;7.82;6.25;;;26.40;84.70;;;;;;5007541;28;20391;-79
2022/07/24 08:41:50;;;;;;;9.95;6.90;;;26.40;84.20;;;;;;5005465;28;20110;-81
2022/07/24 08:44:20;;;;;;;7.47;6.40;;;26.40;83.70;;;;;;5006387;28;20034;-80
2022/07/24 08:46:52;;;;;;;7.57;6.88;;;26.50;83.50;;;;;;5004641;28;20026;-81
2022/07/24 08:49:20;;;;;;;7.43;6.67;;;26.50;83.40;;;;;;5004618;28;20036;-81
2022/07/24 08:51:53;;;;;;;7.97;6.53;;;26.50;82.90;;;;;;5009708;28;20030;-81
2022/07/24 08:54:19;;;;;;;8.50;6.72;;;26.60;83.20;;;;;;5000097;28;20038;-80
2022/07/24 08:56:45;;;;;;;8.77;7.40;;;26.60;83.30;;;;;;5005670;28;20026;-79
2022/07/24 08:59:18;;;;;;;8.93;7.25;;;26.70;83.40;;;;;;5006671;28;20049;-79
2022/07/24 09:01:46;;;;;;;7.40;6.63;;;26.70;83.00;;;;;;4998225;28;20436;-80
2022/07/24 09:04:32;;;;;;;9.82;7.22;;;26.60;82.70;;;;;;5006978;28;20076;-80
2022/07/24 09:06:59;;;;;;;7.13;6.43;;;26.70;82.60;;;;;;5002460;28;20030;-80
2022/07/24 09:09:25;;;;;;;9.07;7.28;;;26.70;82.50;;;;;;5004337;28;20042;-80
2022/07/24 09:12:05;;;;;;;8.25;6.85;;;26.60;82.80;;;;;;5004650;28;20133;-79
2022/07/24 09:14:36;;;;;;;8.82;7.32;;;26.70;83.00;;;;;;5005798;28;20089;-80
2022/07/24 09:17:08;;;;;;;10.13;7.95;;;26.70;82.60;;;;;;5003949;28;20029;-78
2022/07/24 09:19:52;;;;;;;10.10;7.28;;;26.80;82.90;;;;;;5011179;28;20053;-79
2022/07/24 09:22:30;;;;;;;7.60;6.85;;;26.90;82.50;;;;;;5024015;28;20025;-79
2022/07/24 09:25:15;;;;;;;9.77;7.57;;;27.00;82.40;;;;;;5019101;28;20426;-82
2022/07/24 09:27:47;;;;;;;9.13;7.28;;;27.10;81.80;;;;;;5002277;28;20026;-79
2022/07/24 09:30:42;;;;;;;7.95;7.03;;;27.00;81.20;;;;;;5002628;28;20019;-80
2022/07/24 09:33:21;;;;;;;8.38;6.97;;;27.10;80.80;;;;;;4997636;28;20037;-79
2022/07/24 09:35:48;;;;;;;7.95;6.90;;;27.10;81.00;;;;;;4998154;28;20023;-80
2022/07/24 09:38:17;;;;;;;7.70;6.90;;;27.10;81.10;;;;;;5022331;28;20037;-80
2022/07/24 09:40:45;;;;;;;7.32;6.63;;;27.10;81.20;;;;;;5005359;28;20022;-79
2022/07/24 09:43:26;;;;;;;11.65;6.72;;;27.20;81.20;;;;;;5003823;28;20055;-80
2022/07/24 09:46:00;;;;;;;10.25;7.40;;;27.20;80.40;;;;;;4998324;28;20387;-80
2022/07/24 09:48:28;;;;;;;9.80;6.93;;;27.30;80.40;;;;;;5007164;28;20045;-80
2022/07/24 09:50:56;;;;;;;9.48;7.20;;;27.30;80.20;;;;;;5001131;28;20042;-80
2022/07/24 09:53:25;;;;;;;10.48;7.43;;;27.40;80.20;;;;;;5010932;28;20037;-80
2022/07/24 09:56:20;;;;;;;9.15;7.25;;;27.50;80.20;;;;;;5001403;28;20049;-80
2022/07/24 09:58:45;;;;;;;8.82;7.20;;;27.60;79.80;;;;;;4990772;28;20407;-78
2022/07/24 10:01:14;;;;;;;8.40;6.97;;;27.60;79.60;;;;;;5015239;28;20026;-79
2022/07/24 10:03:47;;;;;;;8.70;7.22;;;27.50;79.40;;;;;;5002115;28;20518;-79
2022/07/24 10:06:15;;;;;;;8.20;7.05;;;27.60;79.30;;;;;;5000522;28;20018;-80
2022/07/24 10:08:43;;;;;;;8.77;7.30;;;27.60;79.00;;;;;;5025720;28;20187;-79
2022/07/24 10:11:12;;;;;;;9.35;7.93;;;27.50;78.70;;;;;;5001452;28;20614;-78
2022/07/24 10:13:38;;;;;;;9.18;7.55;;;27.40;78.60;;;;;;5000793;28;20062;-78
2022/07/24 10:16:26;;;;;;;10.65;7.15;;;27.40;78.60;;;;;;5003844;28;20027;-77
2022/07/24 10:19:03;;;;;;;7.80;6.85;;;27.40;78.90;;;;;;5005340;28;20076;-78
2022/07/24 10:21:34;;;;;;;8.35;7.03;;;27.40;78.60;;;;;;5007142;28;20085;-78
2022/07/24 10:24:27;;;;;;;11.05;7.47;;;27.30;78.20;;;;;;5007150;28;20022;-78
2022/07/24 10:27:04;;;;;;;11.52;7.38;;;27.30;78.50;;;;;;5004092;28;20073;-78
2022/07/24 10:29:33;;;;;;;9.27;6.38;;;27.30;78.10;;;;;;4996285;28;20054;-77
2022/07/24 10:32:00;;;;;;;8.90;7.32;;;27.40;78.40;;;;;;5001426;28;20057;-78
2022/07/24 10:34:46;;;;;;;7.05;6.18;;;27.50;78.30;;;;;;5001658;28;20018;-79
2022/07/24 10:37:19;;;;;;;8.38;6.53;;;27.50;77.70;;;;;;4999224;28;20479;-78
2022/07/24 10:40:15;;;;;;;8.75;6.72;;;27.50;77.70;;;;;;5000358;28;20039;-78
2022/07/24 10:43:08;;;;;;;9.98;7.93;;;27.60;77.90;;;;;;5000394;28;20113;-77
2022/07/24 10:45:40;;;;;;;10.32;8.15;;;27.60;77.30;;;;;;4999993;28;20082;-77
2022/07/24 10:48:21;;;;;;;8.80;7.90;;;27.60;77.30;;;;;;5001712;28;20033;-77
2022/07/24 10:50:59;;;;;;;8.00;7.20;;;27.80;77.20;;;;;;4996512;28;20052;-77
2022/07/24 10:53:35;;;;;;;11.43;7.05;;;27.80;76.50;;;;;;4999122;28;20027;-78
2022/07/24 10:56:33;;;;;;;9.25;6.70;;;27.90;76.00;;;;;;5000081;28;20022;-78
2022/07/24 10:59:09;;;;;;;9.35;7.15;;;28.00;75.40;;;;;;4994952;28;20172;-74
2022/07/24 11:01:50;;;;;;;7.63;6.82;;;28.00;75.60;;;;;;4993820;28;20030;-79
2022/07/24 11:04:19;;;;;;;7.55;6.57;;;27.90;75.00;;;;;;4996229;28;20029;-79
2022/07/24 11:06:46;;;;;;;10.70;7.75;;;27.90;74.70;;;;;;4999738;28;20026;-78
2022/07/24 11:09:13;;;;;;;11.63;7.60;;;27.80;75.30;;;;;;5002579;28;20110;-78
2022/07/24 11:11:51;;;;;;;9.30;6.38;;;27.80;75.40;;;;;;4996863;28;20487;-78
2022/07/24 11:14:22;;;;;;;9.07;6.95;;;27.80;75.40;;;;;;4988278;28;20112;-78
2022/07/24 11:16:47;;;;;;;8.20;7.38;;;27.80;75.10;;;;;;4992486;28;20487;-78
2022/07/24 11:19:16;;;;;;;7.72;6.65;;;27.80;74.90;;;;;;4996097;28;20038;-78
2022/07/24 11:21:44;;;;;;;8.63;6.75;;;27.80;75.20;;;;;;4995864;28;20045;-78
2022/07/24 11:24:16;;;;;;;10.82;6.75;;;27.90;74.80;;;;;;4992630;28;20030;-77
2022/07/24 11:27:03;;;;;;;7.28;6.55;;;28.00;74.70;;;;;;5005098;28;20026;-78
2022/07/24 11:29:37;;;;;;;8.27;6.75;;;28.10;74.30;;;;;;5025162;28;20492;-78
2022/07/24 11:32:07;;;;;;;7.78;6.97;;;28.10;73.80;;;;;;4993717;28;20050;-77
2022/07/24 11:34:34;;;;;;;11.18;7.60;;;28.20;73.90;;;;;;4995923;28;20038;-78
2022/07/24 11:37:01;;;;;;;7.30;6.25;;;28.20;73.40;;;;;;4993891;28;20037;-78
2022/07/24 11:39:33;;;;;;;8.45;6.72;;;28.30;73.50;;;;;;4996875;28;20561;-78
2022/07/24 11:42:08;;;;;;;7.60;6.88;;;28.40;73.00;;;;;;4987294;28;20019;-77
2022/07/24 11:44:42;;;;;;;8.82;7.38;;;28.40;72.90;;;;;;4991828;28;20038;-78
2022/07/24 11:47:26;;;;;;;9.27;7.28;;;28.50;72.80;;;;;;4991481;28;20554;-78
2022/07/24 11:49:54;;;;;;;7.68;6.88;;;28.60;73.10;;;;;;4992461;28;20102;-77
2022/07/24 11:52:24;;;;;;;7.35;6.65;;;28.60;72.80;;;;;;4993839;28;20109;-77
2022/07/24 11:54:51;;;;;;;8.30;7.13;;;28.70;72.70;;;;;;4992989;28;20034;-77
2022/07/24 11:57:18;;;;;;;10.68;8.23;;;28.70;72.60;;;;;;4992912;28;20018;-78
2022/07/24 11:59:43;;;;;;;9.90;7.80;;;28.70;72.90;;;;;;4989256;28;20109;-78
2022/07/24 12:02:10;;;;;;;8.82;7.93;;;28.80;72.70;;;;;;4986881;28;20276;-77
2022/07/24 12:04:39;;;;;;;7.80;6.97;;;28.90;72.30;;;;;;4990761;28;20053;-77
2022/07/24 12:07:35;;;;;;;9.73;7.25;;;28.90;72.10;;;;;;4993079;28;20480;-77
2022/07/24 12:10:03;;;;;;;8.10;6.95;;;29.00;71.50;;;;;;4991650;28;20026;-77
2022/07/24 12:12:31;;;;;;;9.35;7.43;;;29.20;71.00;;;;;;4992713;28;20125;-77
2022/07/24 12:15:11;;;;;;;7.95;7.20;;;29.20;71.30;;;;;;4993916;28;20061;-77
2022/07/24 12:18:00;;;;;;;8.65;7.72;;;29.30;71.30;;;;;;4992481;28;20022;-77
2022/07/24 12:20:35;;;;;;;8.90;7.20;;;29.30;70.50;;;;;;4993816;28;20092;-77
2022/07/24 12:23:04;;;;;;;7.82;6.47;;;29.40;70.50;;;;;;4991795;28;20061;-77
2022/07/24 12:25:30;;;;;;;9.07;7.38;;;29.30;69.90;;;;;;4991013;28;20391;-78
2022/07/24 12:28:19;;;;;;;8.13;6.68;;;29.40;70.10;;;;;;4990179;28;20081;-78
2022/07/24 12:30:54;;;;;;;8.73;7.13;;;29.40;69.30;;;;;;4989994;28;20057;-79
2022/07/24 12:33:21;;;;;;;7.70;6.93;;;29.40;69.20;;;;;;4995487;28;20023;-78
2022/07/24 12:36:10;;;;;;;8.07;7.20;;;29.30;69.00;;;;;;4989635;28;20023;-78
2022/07/24 12:38:49;;;;;;;9.75;7.32;;;29.30;69.00;;;;;;4983961;28;20026;-79
2022/07/24 12:41:17;;;;;;;9.25;7.10;;;29.20;69.10;;;;;;4989940;28;20093;-78
2022/07/24 12:44:05;;;;;;;10.18;6.82;;;29.20;68.90;;;;;;4978952;28;20357;-77
2022/07/24 12:46:40;;;;;;;10.45;9.07;;;29.30;68.50;;;;;;4993406;28;20034;-77
2022/07/24 12:49:07;;;;;;;8.60;7.45;;;29.30;68.90;;;;;;4993319;28;20022;-77
2022/07/24 12:51:56;;;;;;;7.43;6.68;;;29.30;68.80;;;;;;4992878;28;20022;-78